map of CKV home
CKV - Airport
Location
City:  Clarksville, Tennessee, United States
Name:Outlaw Field
ICAO:KCKV
IATA:CKV
FAA LID:CKV

Details
Type:Airport (Airfield)
Use:Public/Civil
Latitude:3637'19"N (36.621861)
Longitude:8724'54"W (-87.414943)
Datum:WGS 1984
Elevation:549 ft (167 m)
Variation:3.41W (WMM2015 magnetic declination)
-0.08 annual change
Runways:2
Longest:5999 × 100 ft (1828 × 30.5 m), paved

Time
Time Zone:UTC-6 (DST-5)
Local Time:

Weather
METAR:KCKV 200852Z AUTO 23004KT 10SM CLR 23/19 A2995 RMK AO2 SLP136 T02330189 55005
TAF:KCKV 200520Z 2006/2106 19003KT P6SM SCT120 BKN250
FM201400 26008G16KT P6SM SCT050 BKN200 PROB30 2019/2023 5SM -TSRA BKN050CB BKN100 OVC250
FM210000 VRB04KT P6SM OVC250

Related Locations
Nearby:
Farthest:YAUG: 11164 mi / 17966 km
Augusta [Augusta Airport], WA, AU

Find:

   beyond  
but within

Other Information
Maps:
NOTAMs:
Links:
Sources:

  
  • flag of United States
  • flag of Tennessee
  

Sectional Chart

Flight Planning
at skyvector.com

Satellite Image

Google Maps Satellite view

 

Copyright © 2004-2018 Karl L. Swartz. All rights reserved.
The Great Circle Mapper name and logo are trademarks of the Great Circle Mapper.
All other trademarks mentioned herein belong to their respective owners.
Please see credits for attibutions and further copyright information.

  Follow gcmap on Facebook Follow gcmap on Twitter Follow gcmap on Google+ GCmap on LinkedIn

hCard Microformat

Geo Microformat